createdAt,value
2023-01-21T00:01:02.604Z,82.86
2023-01-21T00:03:29.249Z,82.61
2023-01-21T00:05:58.293Z,83.27
2023-01-21T00:08:27.406Z,83.55
2023-01-21T00:10:54.405Z,83.09
2023-01-21T00:13:23.970Z,82.10
2023-01-21T00:15:50.575Z,81.83
2023-01-21T00:18:20.233Z,82.48
2023-01-21T00:20:46.752Z,82.61
2023-01-21T00:23:13.423Z,82.26
2023-01-21T00:25:40.007Z,82.37
2023-01-21T00:28:06.519Z,83.06
2023-01-21T00:30:33.471Z,82.37
2023-01-21T00:32:59.957Z,82.47
2023-01-21T00:35:26.453Z,82.00
2023-01-21T00:37:53.087Z,82.11
2023-01-21T00:40:19.916Z,81.71
2023-01-21T00:42:46.614Z,81.65
2023-01-21T00:45:13.268Z,82.02
2023-01-21T00:47:40.067Z,81.91
2023-01-21T00:50:07.573Z,81.76
2023-01-21T00:52:34.340Z,81.82
2023-01-21T00:55:00.918Z,81.31
2023-01-21T00:57:27.469Z,80.77
2023-01-21T00:59:56.195Z,81.27
2023-01-21T01:02:22.793Z,80.78
2023-01-21T01:04:49.308Z,81.10
2023-01-21T01:07:18.211Z,81.63
2023-01-21T01:09:44.710Z,80.54
2023-01-21T01:12:11.262Z,82.04
2023-01-21T01:14:37.916Z,81.43
2023-01-21T01:17:04.872Z,80.98
2023-01-21T01:19:31.462Z,81.11
2023-01-21T01:21:58.019Z,80.21
2023-01-21T01:24:24.591Z,79.89
2023-01-21T01:26:51.124Z,81.22
2023-01-21T01:29:18.686Z,80.58
2023-01-21T01:31:48.190Z,80.36
2023-01-21T01:34:14.837Z,79.99
2023-01-21T01:36:41.425Z,80.18
2023-01-21T01:39:07.955Z,80.64
2023-01-21T01:41:35.347Z,80.62
2023-01-21T01:44:39.796Z,79.61
2023-01-21T01:47:06.512Z,78.57
2023-01-21T01:49:33.107Z,78.75
2023-01-21T01:52:04.922Z,78.75
2023-01-21T01:54:44.926Z,78.03
2023-01-21T01:57:17.044Z,78.74
2023-01-21T01:59:44.770Z,79.21
2023-01-21T02:02:17.195Z,78.05
2023-01-21T02:05:02.271Z,77.79
2023-01-21T02:07:33.157Z,78.07
2023-01-21T02:10:02.443Z,78.60
2023-01-21T02:12:29.058Z,77.59
2023-01-21T02:14:55.641Z,77.37
2023-01-21T02:17:37.373Z,77.62
2023-01-21T02:20:09.473Z,77.04
2023-01-21T02:23:11.402Z,76.43
2023-01-21T02:25:52.941Z,76.72
2023-01-21T02:28:41.255Z,75.95
2023-01-21T02:31:28.361Z,76.16
2023-01-21T02:34:25.577Z,75.89
2023-01-21T02:37:02.620Z,76.23
2023-01-21T02:40:03.207Z,75.51
2023-01-21T02:42:48.521Z,75.89
2023-01-21T02:45:14.985Z,75.68
2023-01-21T02:47:54.797Z,75.71
2023-01-21T02:50:26.472Z,75.46
2023-01-21T02:53:01.147Z,74.31
2023-01-21T02:55:31.777Z,75.32
2023-01-21T02:58:16.121Z,74.95
2023-01-21T03:01:29.574Z,74.40
2023-01-21T03:04:11.433Z,73.94
2023-01-21T03:07:03.449Z,74.06
2023-01-21T03:09:32.692Z,74.33
2023-01-21T03:12:20.453Z,73.61
2023-01-21T03:15:19.103Z,73.18
2023-01-21T03:17:50.873Z,74.08
2023-01-21T03:20:35.348Z,73.28
2023-01-21T03:23:06.417Z,73.63
2023-01-21T03:25:35.083Z,74.12
2023-01-21T03:28:07.911Z,73.62
2023-01-21T03:30:37.838Z,74.66
2023-01-21T03:33:05.661Z,72.90
2023-01-21T03:35:36.501Z,72.68
2023-01-21T03:38:25.679Z,73.45
2023-01-21T03:41:02.598Z,73.46
2023-01-21T03:43:29.214Z,73.24
2023-01-21T03:45:55.705Z,72.18
2023-01-21T03:48:31.527Z,72.42
2023-01-21T03:51:08.603Z,72.64
2023-01-21T03:53:35.443Z,72.12
2023-01-21T03:56:01.979Z,71.76
2023-01-21T03:58:29.020Z,72.24
2023-01-21T04:00:55.656Z,72.16
2023-01-21T04:03:22.256Z,72.42
2023-01-21T04:05:48.835Z,72.70
2023-01-21T04:08:15.388Z,72.67
2023-01-21T04:10:42.262Z,72.12
2023-01-21T04:13:08.786Z,72.50
2023-01-21T04:15:35.414Z,71.99
2023-01-21T04:18:02.103Z,72.85
2023-01-21T04:20:28.798Z,72.54
2023-01-21T04:22:57.205Z,71.92
2023-01-21T04:25:23.840Z,72.17
2023-01-21T04:27:50.371Z,72.10
2023-01-21T04:30:17.747Z,72.14
2023-01-21T04:32:44.444Z,72.80
2023-01-21T04:35:10.990Z,72.16
2023-01-21T04:37:37.505Z,72.99
2023-01-21T04:40:04.338Z,72.86
2023-01-21T04:42:30.890Z,71.96
2023-01-21T04:44:57.510Z,71.82
2023-01-21T04:47:24.042Z,72.86
2023-01-21T04:49:50.578Z,72.45
2023-01-21T04:52:17.127Z,72.79
2023-01-21T04:54:43.647Z,71.98
2023-01-21T04:57:13.095Z,72.41
2023-01-21T04:59:42.576Z,72.53
2023-01-21T05:02:09.200Z,72.28
2023-01-21T05:04:35.835Z,72.09
2023-01-21T05:07:02.410Z,72.51
2023-01-21T05:09:28.973Z,72.00
2023-01-21T05:11:55.463Z,71.47
2023-01-21T05:14:22.037Z,72.03
2023-01-21T05:16:48.559Z,71.22
2023-01-21T05:19:15.460Z,71.10
2023-01-21T05:21:42.031Z,70.57
2023-01-21T05:24:08.700Z,70.63
2023-01-21T05:26:35.582Z,70.10
2023-01-21T05:29:04.944Z,70.83
2023-01-21T05:31:31.639Z,70.10
2023-01-21T05:33:58.358Z,69.75
2023-01-21T05:36:25.007Z,70.17
2023-01-21T05:38:51.693Z,69.37
2023-01-21T05:41:18.481Z,70.43
2023-01-21T05:43:47.610Z,70.00
2023-01-21T05:46:14.199Z,69.63
2023-01-21T05:48:40.745Z,69.35
2023-01-21T05:51:07.372Z,69.84
2023-01-21T05:53:33.929Z,69.83
2023-01-21T05:56:00.529Z,69.69
2023-01-21T05:58:27.244Z,69.49
2023-01-21T06:00:54.453Z,69.34
2023-01-21T06:03:21.091Z,69.21
2023-01-21T06:05:49.234Z,69.44
2023-01-21T06:08:16.221Z,70.17
2023-01-21T06:10:42.857Z,70.82
2023-01-21T06:13:14.057Z,70.52
2023-01-21T06:15:40.812Z,70.75
2023-01-21T06:18:07.829Z,70.79
2023-01-21T06:20:34.664Z,70.94
2023-01-21T06:23:03.228Z,71.04
2023-01-21T06:25:32.339Z,70.92
2023-01-21T06:27:59.231Z,70.55
2023-01-21T06:30:36.250Z,71.26
2023-01-21T06:33:02.818Z,71.07
2023-01-21T06:35:30.096Z,71.42
2023-01-21T06:37:56.719Z,71.54
2023-01-21T06:40:23.287Z,71.71
2023-01-21T06:42:54.263Z,71.08
2023-01-21T06:45:22.185Z,72.00
2023-01-21T06:47:48.875Z,71.06
2023-01-21T06:50:17.457Z,70.38
2023-01-21T06:52:46.171Z,70.21
2023-01-21T06:55:16.688Z,69.37
2023-01-21T06:57:46.336Z,69.11
2023-01-21T07:00:13.653Z,69.11
2023-01-21T07:02:40.564Z,68.99
2023-01-21T07:05:07.461Z,69.50
2023-01-21T07:07:33.994Z,68.92
2023-01-21T07:10:00.645Z,69.60
2023-01-21T07:12:29.318Z,70.17
2023-01-21T07:14:55.865Z,68.89
2023-01-21T07:17:25.476Z,68.53
2023-01-21T07:19:52.016Z,68.88
2023-01-21T07:22:18.626Z,68.42
2023-01-21T07:24:46.604Z,68.96
2023-01-21T07:27:13.127Z,69.84
2023-01-21T07:29:39.682Z,69.66
2023-01-21T07:32:06.227Z,67.73
2023-01-21T07:34:35.500Z,68.36
2023-01-21T07:37:02.050Z,68.40
2023-01-21T07:39:28.565Z,68.65
2023-01-21T07:41:57.392Z,68.37
2023-01-21T07:44:23.890Z,67.79
2023-01-21T07:46:52.528Z,67.83
2023-01-21T07:49:19.119Z,68.53
2023-01-21T07:51:46.514Z,68.28
2023-01-21T07:54:14.070Z,68.24
2023-01-21T07:56:40.807Z,68.59
2023-01-21T07:59:10.904Z,70.34
2023-01-21T08:01:37.468Z,69.04
2023-01-21T08:04:04.115Z,69.34
2023-01-21T08:06:30.754Z,69.31
2023-01-21T08:08:57.306Z,68.74
2023-01-21T08:11:26.829Z,68.99
2023-01-21T08:13:53.384Z,67.64
2023-01-21T08:16:20.066Z,68.63
2023-01-21T08:18:46.598Z,68.19
2023-01-21T08:21:13.109Z,68.99
2023-01-21T08:23:39.722Z,68.17
2023-01-21T08:26:06.790Z,67.15
2023-01-21T08:28:34.158Z,67.08
2023-01-21T08:31:18.811Z,67.30
2023-01-21T08:33:45.338Z,68.08
2023-01-21T08:36:11.914Z,67.82
2023-01-21T08:38:38.577Z,67.29
2023-01-21T08:41:06.026Z,66.62
2023-01-21T08:43:32.599Z,66.60
2023-01-21T08:46:02.091Z,66.79
2023-01-21T08:48:31.802Z,65.46
2023-01-21T08:51:00.119Z,65.13
2023-01-21T08:53:29.798Z,66.34
2023-01-21T08:56:03.889Z,66.10
2023-01-21T08:58:33.305Z,67.76
2023-01-21T09:01:06.607Z,68.06
2023-01-21T09:03:33.295Z,66.97
2023-01-21T09:06:04.391Z,67.22
2023-01-21T09:08:31.219Z,64.74
2023-01-21T09:11:01.830Z,65.92
2023-01-21T09:13:30.630Z,64.50
2023-01-21T09:15:57.284Z,65.35
2023-01-21T09:18:23.986Z,64.60
2023-01-21T09:20:50.596Z,63.75
2023-01-21T09:23:29.065Z,62.18
2023-01-21T09:26:08.101Z,63.60
2023-01-21T09:28:39.697Z,62.50
2023-01-21T09:31:10.026Z,62.09
2023-01-21T09:33:38.854Z,63.29
2023-01-21T09:36:07.346Z,64.11
2023-01-21T09:38:36.140Z,63.86
2023-01-21T09:41:15.206Z,63.58
2023-01-21T09:43:49.464Z,64.48
2023-01-21T09:46:41.401Z,63.51
2023-01-21T09:49:15.096Z,62.75
2023-01-21T09:51:51.355Z,61.88
2023-01-21T09:54:25.573Z,61.37
2023-01-21T09:57:17.846Z,61.75
2023-01-21T09:59:53.549Z,62.43
2023-01-21T10:02:58.963Z,62.05
2023-01-21T10:05:25.476Z,61.72
2023-01-21T10:07:57.191Z,61.31
2023-01-21T10:10:35.850Z,61.98
2023-01-21T10:13:39.418Z,61.50
2023-01-21T10:16:11.607Z,62.41
2023-01-21T10:18:46.464Z,62.46
2023-01-21T10:21:30.596Z,61.60
2023-01-21T10:24:04.599Z,62.00
2023-01-21T10:26:37.051Z,62.11
2023-01-21T10:29:04.375Z,61.60
2023-01-21T10:31:39.397Z,61.79
2023-01-21T10:34:23.064Z,61.44
2023-01-21T10:37:18.552Z,60.63
2023-01-21T10:40:00.390Z,62.04
2023-01-21T10:42:54.281Z,62.69
2023-01-21T10:45:25.750Z,62.46
2023-01-21T10:48:04.910Z,62.17
2023-01-21T10:50:59.003Z,62.41
2023-01-21T10:53:38.719Z,63.12
2023-01-21T10:56:30.271Z,63.16
2023-01-21T10:59:03.082Z,62.21
2023-01-21T11:01:37.894Z,62.48
2023-01-21T11:04:11.609Z,63.03
2023-01-21T11:06:39.315Z,62.50
2023-01-21T11:09:08.156Z,61.90
2023-01-21T11:11:36.996Z,62.74
2023-01-21T11:14:03.717Z,62.44
2023-01-21T11:16:44.996Z,63.29
2023-01-21T11:19:14.904Z,63.44
2023-01-21T11:21:41.716Z,63.13
2023-01-21T11:24:23.172Z,63.11
2023-01-21T11:26:55.793Z,62.48
2023-01-21T11:29:29.226Z,63.33
2023-01-21T11:32:30.043Z,63.24
2023-01-21T11:35:10.685Z,63.96
2023-01-21T11:37:39.837Z,63.32
2023-01-21T11:40:12.749Z,62.99
2023-01-21T11:42:52.380Z,63.49
2023-01-21T11:45:33.520Z,62.92
2023-01-21T11:48:02.039Z,63.26
2023-01-21T11:50:35.922Z,63.08
2023-01-21T11:53:14.220Z,63.96
2023-01-21T11:55:45.059Z,63.11
2023-01-21T11:58:22.255Z,63.33
2023-01-21T12:00:53.466Z,63.25
2023-01-21T12:03:25.858Z,64.00
2023-01-21T12:05:54.596Z,62.77
2023-01-21T12:08:27.095Z,62.12
2023-01-21T12:10:58.667Z,63.39
2023-01-21T12:13:25.175Z,63.44
2023-01-21T12:16:10.731Z,63.75
2023-01-21T12:19:03.519Z,64.27
2023-01-21T12:21:36.298Z,64.21
2023-01-21T12:24:31.916Z,63.65
2023-01-21T12:27:09.066Z,64.06
2023-01-21T12:29:47.531Z,63.74
2023-01-21T12:32:38.576Z,64.67
2023-01-21T12:35:24.226Z,64.89
2023-01-21T12:38:02.874Z,64.75
2023-01-21T12:40:40.358Z,64.20
2023-01-21T12:43:25.741Z,64.50
2023-01-21T12:45:57.035Z,64.74
2023-01-21T12:48:37.939Z,64.66
2023-01-21T12:51:10.561Z,64.69
2023-01-21T12:53:55.349Z,65.03
2023-01-21T12:56:37.711Z,64.70
2023-01-21T12:59:13.485Z,63.71
2023-01-21T13:01:48.512Z,63.94
2023-01-21T13:04:21.556Z,64.14
2023-01-21T13:06:59.476Z,63.28
2023-01-21T13:09:46.800Z,63.39
2023-01-21T13:12:20.638Z,63.69
2023-01-21T13:14:55.281Z,64.15
2023-01-21T13:17:29.335Z,63.79
2023-01-21T13:19:55.898Z,64.23
2023-01-21T13:22:32.104Z,64.51
2023-01-21T13:25:18.933Z,64.42
2023-01-21T13:28:00.800Z,64.06
2023-01-21T13:31:08.789Z,63.50
2023-01-21T13:33:53.765Z,64.20
2023-01-21T13:36:29.414Z,64.27
2023-01-21T13:39:07.832Z,64.65
2023-01-21T13:42:03.061Z,63.72
2023-01-21T13:44:51.384Z,64.21
2023-01-21T13:47:48.997Z,63.93
2023-01-21T13:50:43.863Z,63.82
2023-01-21T13:53:35.058Z,63.36
2023-01-21T13:56:13.823Z,63.63
2023-01-21T13:58:55.488Z,63.66
2023-01-21T14:01:34.861Z,64.53
2023-01-21T14:04:19.508Z,63.90
2023-01-21T14:07:11.476Z,62.50
2023-01-21T14:09:48.427Z,63.43
2023-01-21T14:12:18.918Z,62.73
2023-01-21T14:14:51.208Z,62.58
2023-01-21T14:17:37.530Z,62.88
2023-01-21T14:20:34.340Z,63.09
2023-01-21T14:23:42.733Z,63.37
2023-01-21T14:26:30.900Z,63.17
2023-01-21T14:29:25.681Z,63.24
2023-01-21T14:32:11.697Z,63.20
2023-01-21T14:34:52.073Z,63.44
2023-01-21T14:37:35.108Z,64.13
2023-01-21T14:40:11.742Z,63.27
2023-01-21T14:42:47.536Z,62.59
2023-01-21T14:45:17.718Z,62.16
2023-01-21T14:48:27.422Z,62.77
2023-01-21T14:50:55.094Z,62.49
2023-01-21T14:53:26.566Z,62.49
2023-01-21T14:56:20.762Z,62.62
2023-01-21T14:59:00.230Z,63.17
2023-01-21T15:01:43.925Z,63.19
2023-01-21T15:04:42.061Z,63.62
2023-01-21T15:07:15.419Z,63.48
2023-01-21T15:09:48.905Z,64.19
2023-01-21T15:12:27.374Z,64.52
2023-01-21T15:15:02.782Z,64.47
2023-01-21T15:17:51.331Z,64.17
2023-01-21T15:20:45.562Z,63.61
2023-01-21T15:23:30.420Z,63.81
2023-01-21T15:26:09.189Z,64.54
2023-01-21T15:28:59.705Z,64.20
2023-01-21T15:31:26.343Z,64.01
2023-01-21T15:33:59.002Z,63.91
2023-01-21T15:36:31.221Z,65.14
2023-01-21T15:39:02.259Z,64.99
2023-01-21T15:41:52.082Z,64.88
2023-01-21T15:44:47.495Z,64.92
2023-01-21T15:47:43.860Z,64.96
2023-01-21T15:50:29.206Z,65.59
2023-01-21T15:53:04.816Z,65.82
2023-01-21T15:55:42.781Z,65.37
2023-01-21T15:58:29.086Z,65.71
2023-01-21T16:01:02.413Z,66.30
2023-01-21T16:03:43.182Z,66.39
2023-01-21T16:06:28.607Z,65.28
2023-01-21T16:09:05.174Z,66.17
2023-01-21T16:11:34.548Z,65.79
2023-01-21T16:14:19.439Z,65.74
2023-01-21T16:17:12.865Z,66.15
2023-01-21T16:19:45.404Z,65.70
2023-01-21T16:22:17.382Z,65.91
2023-01-21T16:24:51.358Z,66.64
2023-01-21T16:27:17.897Z,66.25
2023-01-21T16:29:44.727Z,65.83
2023-01-21T16:32:19.455Z,66.05
2023-01-21T16:34:46.848Z,65.24
2023-01-21T16:37:33.929Z,65.58
2023-01-21T16:40:09.462Z,65.89
2023-01-21T16:42:45.958Z,66.26
2023-01-21T16:45:19.718Z,66.50
2023-01-21T16:47:54.055Z,66.90
2023-01-21T16:50:23.686Z,67.24
2023-01-21T16:52:51.841Z,66.43
2023-01-21T16:55:23.627Z,65.80
2023-01-21T16:57:52.765Z,65.92
2023-01-21T17:00:39.584Z,66.36
2023-01-21T17:03:11.516Z,66.24
2023-01-21T17:05:38.133Z,65.99
2023-01-21T17:08:11.265Z,66.30
2023-01-21T17:10:56.114Z,65.98
2023-01-21T17:13:23.119Z,66.00
2023-01-21T17:15:58.306Z,66.45
2023-01-21T17:18:29.037Z,66.12
2023-01-21T17:21:15.018Z,65.69
2023-01-21T17:23:48.897Z,66.15
2023-01-21T17:26:20.828Z,66.64
2023-01-21T17:29:04.954Z,66.61
2023-01-21T17:31:37.339Z,65.83
2023-01-21T17:34:25.490Z,65.96
2023-01-21T17:36:53.676Z,66.67
2023-01-21T17:39:48.507Z,66.42
2023-01-21T17:42:17.186Z,66.67
2023-01-21T17:45:06.448Z,66.72
2023-01-21T17:47:45.774Z,66.30
2023-01-21T17:50:25.141Z,66.75
2023-01-21T17:53:09.604Z,66.73
2023-01-21T17:55:38.653Z,66.55
2023-01-21T17:58:45.109Z,66.88
2023-01-21T18:01:12.424Z,66.89
2023-01-21T18:03:38.953Z,67.01
2023-01-21T18:06:13.418Z,67.20
2023-01-21T18:08:39.952Z,66.83
2023-01-21T18:11:06.582Z,66.78
2023-01-21T18:13:35.948Z,67.16
2023-01-21T18:16:02.722Z,67.22
2023-01-21T18:18:30.424Z,67.20
2023-01-21T18:20:57.198Z,67.31
2023-01-21T18:23:23.746Z,67.23
2023-01-21T18:25:54.865Z,67.04
2023-01-21T18:28:28.102Z,67.03
2023-01-21T18:30:57.585Z,67.20
2023-01-21T18:33:25.078Z,67.48
2023-01-21T18:35:52.701Z,67.51
2023-01-21T18:38:27.530Z,67.66
2023-01-21T18:40:54.854Z,67.91
2023-01-21T18:43:21.507Z,67.76
2023-01-21T18:45:48.316Z,67.74
2023-01-21T18:48:16.578Z,67.36
2023-01-21T18:50:43.622Z,67.84
2023-01-21T18:53:12.759Z,67.91
2023-01-21T18:55:43.888Z,68.06
2023-01-21T18:58:17.156Z,68.39
2023-01-21T19:00:43.818Z,68.54
2023-01-21T19:03:13.812Z,68.25
2023-01-21T19:05:44.130Z,68.22
2023-01-21T19:08:24.605Z,68.40
2023-01-21T19:10:51.745Z,68.91
2023-01-21T19:13:18.415Z,68.86
2023-01-21T19:15:45.880Z,68.57
2023-01-21T19:18:14.306Z,69.23
2023-01-21T19:20:41.901Z,68.34
2023-01-21T19:23:15.709Z,68.97
2023-01-21T19:25:46.525Z,69.06
2023-01-21T19:28:13.083Z,68.80
2023-01-21T19:30:45.119Z,68.88
2023-01-21T19:33:12.925Z,68.70
2023-01-21T19:35:44.969Z,69.27
2023-01-21T19:38:15.264Z,68.82
2023-01-21T19:40:42.519Z,68.82
2023-01-21T19:43:19.048Z,69.54
2023-01-21T19:45:45.619Z,69.67
2023-01-21T19:48:14.608Z,69.98
2023-01-21T19:50:41.473Z,70.15
2023-01-21T19:53:10.493Z,70.41
2023-01-21T19:55:39.128Z,71.17
2023-01-21T19:58:17.808Z,70.36
2023-01-21T20:00:44.300Z,70.23
2023-01-21T20:03:13.986Z,70.51
2023-01-21T20:05:40.805Z,69.99
2023-01-21T20:08:12.537Z,70.24
2023-01-21T20:10:39.297Z,70.26
2023-01-21T20:13:10.944Z,70.62
2023-01-21T20:15:37.893Z,70.60
2023-01-21T20:18:07.592Z,70.68
2023-01-21T20:20:34.271Z,71.05
2023-01-21T20:23:01.528Z,70.53
2023-01-21T20:25:38.836Z,70.47
2023-01-21T20:28:18.083Z,70.12
2023-01-21T20:30:45.267Z,70.63
2023-01-21T20:33:15.603Z,71.06
2023-01-21T20:35:42.537Z,70.75
2023-01-21T20:38:13.570Z,71.66
2023-01-21T20:40:40.755Z,71.72
2023-01-21T20:43:07.369Z,71.63
2023-01-21T20:45:40.105Z,71.88
2023-01-21T20:48:06.771Z,71.08
2023-01-21T20:50:35.553Z,71.37
2023-01-21T20:53:03.909Z,71.71
2023-01-21T20:55:31.465Z,72.04
2023-01-21T20:57:58.057Z,71.68
2023-01-21T21:00:32.239Z,71.70
2023-01-21T21:02:59.101Z,72.22
2023-01-21T21:05:27.635Z,72.45
2023-01-21T21:07:55.042Z,72.35
2023-01-21T21:10:29.878Z,71.96
2023-01-21T21:12:58.715Z,72.77
2023-01-21T21:15:29.803Z,72.47
2023-01-21T21:18:00.313Z,71.92
2023-01-21T21:20:35.972Z,72.31
2023-01-21T21:23:02.642Z,72.35
2023-01-21T21:25:32.260Z,72.64
2023-01-21T21:28:01.566Z,72.27
2023-01-21T21:30:31.192Z,72.22
2023-01-21T21:32:59.573Z,72.20
2023-01-21T21:35:36.531Z,71.67
2023-01-21T21:38:11.181Z,71.69
2023-01-21T21:40:38.046Z,71.53
2023-01-21T21:43:23.598Z,71.68
2023-01-21T21:46:08.809Z,72.34
2023-01-21T21:48:38.260Z,70.75
2023-01-21T21:51:25.892Z,71.74
2023-01-21T21:53:52.661Z,71.52
2023-01-21T21:56:22.403Z,72.26
2023-01-21T21:58:50.445Z,72.42
2023-01-21T22:01:22.929Z,72.06
2023-01-21T22:03:49.806Z,71.85
2023-01-21T22:06:21.424Z,72.03
2023-01-21T22:08:49.163Z,71.82
2023-01-21T22:11:18.449Z,71.61
2023-01-21T22:13:50.021Z,71.43
2023-01-21T22:16:19.631Z,70.89
2023-01-21T22:18:46.455Z,71.73
2023-01-21T22:21:16.151Z,71.75
2023-01-21T22:23:43.507Z,71.22
2023-01-21T22:26:13.173Z,71.48
2023-01-21T22:28:40.091Z,71.55
2023-01-21T22:31:12.616Z,71.71
2023-01-21T22:33:42.694Z,70.92
2023-01-21T22:36:12.502Z,71.30
2023-01-21T22:38:40.833Z,71.38
2023-01-21T22:41:09.341Z,71.47
2023-01-21T22:43:35.879Z,70.49
2023-01-21T22:46:02.590Z,70.84
2023-01-21T22:48:31.679Z,71.09
2023-01-21T22:51:00.368Z,70.85
2023-01-21T22:53:28.269Z,70.62
2023-01-21T22:56:01.134Z,70.63
2023-01-21T22:58:29.683Z,70.62
2023-01-21T23:00:56.910Z,71.00
2023-01-21T23:03:24.575Z,70.47
2023-01-21T23:05:51.833Z,70.78
2023-01-21T23:08:19.420Z,70.82
2023-01-21T23:10:47.247Z,71.08
2023-01-21T23:13:15.202Z,71.19
2023-01-21T23:15:43.520Z,71.08
2023-01-21T23:18:10.757Z,71.06
2023-01-21T23:20:37.471Z,71.81
2023-01-21T23:23:04.185Z,70.73
2023-01-21T23:25:30.813Z,71.30
2023-01-21T23:27:57.330Z,71.47
2023-01-21T23:30:23.847Z,71.44
2023-01-21T23:32:50.340Z,71.66
2023-01-21T23:35:21.829Z,71.59
2023-01-21T23:37:48.308Z,71.55
2023-01-21T23:40:14.958Z,72.08
2023-01-21T23:42:41.518Z,71.74
2023-01-21T23:45:08.600Z,71.50
2023-01-21T23:47:36.503Z,71.51
2023-01-21T23:50:03.192Z,71.07
2023-01-21T23:52:29.743Z,71.78
2023-01-21T23:54:56.385Z,71.19
2023-01-21T23:57:22.925Z,71.48
2023-01-21T23:59:49.513Z,71.51
